createdAt,value
2022-08-24T00:01:58.658Z,7.77
2022-08-24T00:04:26.347Z,8.57
2022-08-24T00:06:55.605Z,8.63
2022-08-24T00:09:22.996Z,8.97
2022-08-24T00:11:50.485Z,8.90
2022-08-24T00:14:18.518Z,9.47
2022-08-24T00:16:46.143Z,11.47
2022-08-24T00:19:13.966Z,9.40
2022-08-24T00:21:41.375Z,12.00
2022-08-24T00:24:09.691Z,11.20
2022-08-24T00:26:37.054Z,9.73
2022-08-24T00:29:07.630Z,10.47
2022-08-24T00:31:35.351Z,9.57
2022-08-24T00:34:03.169Z,10.40
2022-08-24T00:36:30.507Z,9.40
2022-08-24T00:38:57.828Z,10.87
2022-08-24T00:41:25.400Z,9.07
2022-08-24T00:44:04.840Z,10.77
2022-08-24T00:46:44.461Z,11.83
2022-08-24T00:49:22.198Z,11.53
2022-08-24T00:52:04.598Z,9.57
2022-08-24T00:54:37.028Z,9.47
2022-08-24T00:57:10.342Z,11.77
2022-08-24T00:59:43.301Z,11.00
2022-08-24T01:02:16.990Z,9.80
2022-08-24T01:04:56.307Z,9.27
2022-08-24T01:07:29.720Z,7.97
2022-08-24T01:10:00.427Z,8.53
2022-08-24T01:12:32.131Z,10.67
2022-08-24T01:15:02.493Z,15.47
2022-08-24T01:17:48.489Z,10.37
2022-08-24T01:20:15.987Z,9.33
2022-08-24T01:23:13.438Z,9.40
2022-08-24T01:25:44.367Z,8.07
2022-08-24T01:28:16.918Z,10.13
2022-08-24T01:30:50.745Z,7.97
2022-08-24T01:33:26.933Z,7.97
2022-08-24T01:36:32.213Z,10.03
2022-08-24T01:39:06.449Z,8.83
2022-08-24T01:41:33.805Z,11.87
2022-08-24T01:44:02.486Z,8.10
2022-08-24T01:46:29.875Z,9.40
2022-08-24T01:48:58.888Z,6.00
2022-08-24T01:51:31.399Z,8.30
2022-08-24T01:54:03.291Z,9.00
2022-08-24T01:56:33.026Z,11.77
2022-08-24T01:59:01.166Z,7.33
2022-08-24T02:01:31.139Z,5.77
2022-08-24T02:04:04.577Z,7.17
2022-08-24T02:06:33.055Z,6.33
2022-08-24T02:09:00.811Z,8.20
2022-08-24T02:11:28.644Z,7.53
2022-08-24T02:13:56.022Z,6.80
2022-08-24T02:16:24.685Z,6.70
2022-08-24T02:18:51.997Z,6.87
2022-08-24T02:21:19.293Z,6.20
2022-08-24T02:23:48.034Z,6.70
2022-08-24T02:26:15.538Z,6.00
2022-08-24T02:28:43.055Z,8.10
2022-08-24T02:31:12.857Z,7.30
2022-08-24T02:33:41.942Z,8.30
2022-08-24T02:36:25.454Z,8.83
2022-08-24T02:38:55.758Z,9.70
2022-08-24T02:41:26.915Z,10.93
2022-08-24T02:43:56.566Z,9.43
2022-08-24T02:46:27.282Z,6.87
2022-08-24T02:48:57.590Z,10.60
2022-08-24T02:51:43.956Z,13.87
2022-08-24T02:54:18.167Z,9.17
2022-08-24T02:56:48.366Z,11.03
2022-08-24T02:59:17.149Z,11.83
2022-08-24T03:01:45.240Z,11.50
2022-08-24T03:04:13.720Z,10.47
2022-08-24T03:06:41.520Z,8.03
2022-08-24T03:09:09.263Z,11.27
2022-08-24T03:11:37.242Z,13.20
2022-08-24T03:14:04.682Z,10.10
2022-08-24T03:16:33.251Z,9.77
2022-08-24T03:19:01.836Z,9.60
2022-08-24T03:21:33.469Z,10.87
2022-08-24T03:24:04.278Z,11.27
2022-08-24T03:26:32.040Z,14.13
2022-08-24T03:28:59.930Z,11.47
2022-08-24T03:31:27.858Z,13.37
2022-08-24T03:33:55.139Z,13.17
2022-08-24T03:36:22.888Z,12.00
2022-08-24T03:38:50.602Z,12.50
2022-08-24T03:41:19.080Z,11.00
2022-08-24T03:43:46.507Z,12.03
2022-08-24T03:46:19.239Z,11.37
2022-08-24T03:48:49.065Z,13.77
2022-08-24T03:51:23.097Z,11.77
2022-08-24T03:53:52.997Z,12.80
2022-08-24T03:56:23.304Z,10.07
2022-08-24T03:58:52.400Z,11.73
2022-08-24T04:01:20.436Z,11.47
2022-08-24T04:03:49.879Z,12.50
2022-08-24T04:06:19.929Z,13.87
2022-08-24T04:08:47.503Z,12.40
2022-08-24T04:11:18.126Z,10.17
2022-08-24T04:13:46.799Z,11.63
2022-08-24T04:16:17.781Z,10.37
2022-08-24T04:18:46.424Z,18.33
2022-08-24T04:21:23.292Z,11.43
2022-08-24T04:23:52.209Z,14.00
2022-08-24T04:26:35.068Z,13.47
2022-08-24T04:29:12.825Z,10.97
2022-08-24T04:31:44.603Z,11.60
2022-08-24T04:34:14.184Z,12.97
2022-08-24T04:36:43.806Z,11.07
2022-08-24T04:39:11.555Z,13.67
2022-08-24T04:41:57.326Z,12.93
2022-08-24T04:44:32.610Z,14.90
2022-08-24T04:47:01.530Z,12.60
2022-08-24T04:49:29.940Z,9.43
2022-08-24T04:51:57.320Z,9.37
2022-08-24T04:54:25.278Z,9.60
2022-08-24T04:57:27.915Z,10.07
2022-08-24T04:59:57.562Z,8.63
2022-08-24T05:02:25.048Z,9.73
2022-08-24T05:04:55.342Z,8.53
2022-08-24T05:07:22.704Z,9.13
2022-08-24T05:09:52.375Z,8.67
2022-08-24T05:12:20.963Z,10.77
2022-08-24T05:14:56.573Z,8.73
2022-08-24T05:17:24.139Z,9.07
2022-08-24T05:19:51.415Z,8.57
2022-08-24T05:22:18.818Z,6.67
2022-08-24T05:24:51.086Z,7.17
2022-08-24T05:27:19.502Z,8.50
2022-08-24T05:29:47.701Z,9.03
2022-08-24T05:32:18.021Z,5.90
2022-08-24T05:34:45.376Z,11.17
2022-08-24T05:37:12.751Z,18.27
2022-08-24T05:40:09.255Z,7.53
2022-08-24T05:42:39.853Z,5.63
2022-08-24T05:45:08.619Z,9.00
2022-08-24T05:47:36.008Z,5.93
2022-08-24T05:50:11.516Z,6.90
2022-08-24T05:52:38.915Z,10.15
2022-08-24T05:55:07.487Z,7.17
2022-08-24T05:57:37.164Z,7.77
2022-08-24T06:00:16.661Z,8.03
2022-08-24T06:02:46.197Z,9.70
2022-08-24T06:05:14.226Z,7.45
2022-08-24T06:07:44.135Z,9.80
2022-08-24T06:10:35.497Z,10.97
2022-08-24T06:12:59.579Z,9.97
2022-08-24T06:15:27.715Z,9.90
2022-08-24T06:17:54.978Z,7.30
2022-08-24T06:20:22.437Z,7.13
2022-08-24T06:22:52.789Z,7.72
2022-08-24T06:25:39.457Z,7.13
2022-08-24T06:28:06.888Z,6.95
2022-08-24T06:30:36.051Z,8.02
2022-08-24T06:33:15.818Z,7.70
2022-08-24T06:35:48.043Z,9.93
2022-08-24T06:38:15.518Z,9.30
2022-08-24T06:40:45.631Z,9.48
2022-08-24T06:43:13.663Z,6.95
2022-08-24T06:45:57.868Z,9.55
2022-08-24T06:48:31.121Z,10.85
2022-08-24T06:51:00.111Z,7.28
2022-08-24T06:53:28.983Z,7.10
2022-08-24T06:56:01.493Z,9.27
2022-08-24T06:58:33.129Z,15.02
2022-08-24T07:01:10.396Z,11.25
2022-08-24T07:03:38.420Z,13.98
2022-08-24T07:06:28.877Z,18.92
2022-08-24T07:09:00.156Z,13.77
2022-08-24T07:11:27.963Z,12.65
2022-08-24T07:13:55.200Z,12.57
2022-08-24T07:16:23.705Z,8.90
2022-08-24T07:18:54.788Z,8.27
2022-08-24T07:21:23.066Z,13.48
2022-08-24T07:23:56.568Z,9.68
2022-08-24T07:26:27.253Z,8.38
2022-08-24T07:29:06.411Z,8.05
2022-08-24T07:31:43.329Z,10.73
2022-08-24T07:34:16.956Z,10.20
2022-08-24T07:36:48.407Z,9.48
2022-08-24T07:39:15.781Z,7.97
2022-08-24T07:44:32.955Z,8.70
2022-08-24T07:47:15.074Z,9.50
2022-08-24T07:49:49.610Z,10.15
2022-08-24T07:52:17.007Z,10.82
2022-08-24T07:54:45.513Z,8.38
2022-08-24T07:57:13.141Z,13.30
2022-08-24T07:59:40.763Z,10.25
2022-08-24T08:02:11.297Z,12.07
2022-08-24T08:04:40.010Z,11.65
2022-08-24T08:07:08.309Z,10.00
2022-08-24T08:09:38.365Z,10.23
2022-08-24T08:12:06.598Z,9.25
2022-08-24T08:14:34.404Z,11.63
2022-08-24T08:17:02.043Z,8.27
2022-08-24T08:19:29.746Z,12.38
2022-08-24T08:22:16.222Z,8.85
2022-08-24T08:25:13.068Z,10.63
2022-08-24T08:27:40.670Z,13.95
2022-08-24T08:30:08.547Z,9.52
2022-08-24T08:32:36.872Z,10.05
2022-08-24T08:35:05.017Z,13.27
2022-08-24T08:40:07.777Z,11.20
2022-08-24T08:43:04.046Z,10.00
2022-08-24T08:45:59.977Z,10.55
2022-08-24T08:49:08.731Z,27.20
2022-08-24T08:52:00.551Z,11.13
2022-08-24T08:54:49.638Z,10.93
2022-08-24T08:57:39.540Z,18.15
2022-08-24T09:00:15.734Z,10.27
2022-08-24T09:03:23.194Z,10.85
2022-08-24T09:06:32.854Z,18.50
2022-08-24T09:09:09.453Z,11.48
2022-08-24T09:12:00.656Z,9.55
2022-08-24T09:14:46.798Z,8.27
2022-08-24T09:17:38.623Z,7.63
2022-08-24T09:20:39.994Z,7.22
2022-08-24T09:23:21.060Z,6.28
2022-08-24T09:26:05.931Z,11.55
2022-08-24T09:29:03.830Z,7.55
2022-08-24T09:32:08.420Z,6.97
2022-08-24T09:34:59.970Z,6.05
2022-08-24T09:38:04.399Z,7.90
2022-08-24T09:40:37.247Z,8.13
2022-08-24T09:43:16.416Z,7.35
2022-08-24T09:46:02.665Z,10.88
2022-08-24T09:48:50.946Z,8.15
2022-08-24T09:51:55.444Z,4.25
2022-08-24T09:55:00.891Z,3.97
2022-08-24T09:57:59.790Z,6.50
2022-08-24T10:01:12.338Z,5.05
2022-08-24T10:04:17.099Z,9.40
2022-08-24T10:06:44.431Z,5.35
2022-08-24T10:09:37.682Z,6.72
2022-08-24T10:12:22.628Z,8.88
2022-08-24T10:14:56.245Z,5.85
2022-08-24T10:17:39.081Z,6.03
2022-08-24T10:20:29.513Z,4.72
2022-08-24T10:23:05.285Z,7.32
2022-08-24T10:25:47.784Z,6.85
2022-08-24T10:28:30.310Z,6.10
2022-08-24T10:31:12.631Z,8.30
2022-08-24T10:34:10.867Z,5.85
2022-08-24T10:37:16.310Z,11.15
2022-08-24T10:40:06.282Z,12.43
2022-08-24T10:43:07.443Z,10.27
2022-08-24T10:45:59.539Z,8.75
2022-08-24T10:48:33.169Z,12.15
2022-08-24T10:51:19.810Z,8.65
2022-08-24T10:53:53.560Z,10.80
2022-08-24T10:56:30.507Z,10.38
2022-08-24T10:59:25.617Z,7.88
2022-08-24T11:02:34.024Z,6.50
2022-08-24T11:05:05.888Z,8.82
2022-08-24T11:07:33.887Z,8.25
2022-08-24T11:10:06.600Z,8.77
2022-08-24T11:12:43.250Z,13.80
2022-08-24T11:15:23.933Z,10.48
2022-08-24T11:18:02.654Z,29.80
2022-08-24T11:20:33.235Z,14.18
2022-08-24T11:23:30.979Z,11.88
2022-08-24T11:26:07.974Z,6.88
2022-08-24T11:28:41.053Z,7.78
2022-08-24T11:31:14.678Z,14.57
2022-08-24T11:34:00.457Z,13.52
2022-08-24T11:36:32.664Z,12.82
2022-08-24T11:39:36.310Z,14.05
2022-08-24T11:42:41.191Z,10.93
2022-08-24T11:45:18.283Z,11.68
2022-08-24T11:47:57.855Z,11.35
2022-08-24T11:50:42.053Z,9.88
2022-08-24T11:56:25.581Z,22.92
2022-08-24T11:59:00.953Z,7.20
2022-08-24T12:01:51.497Z,9.15
2022-08-24T12:04:20.198Z,11.48
2022-08-24T12:06:59.095Z,9.00
2022-08-24T12:09:26.377Z,8.95
2022-08-24T12:12:09.868Z,11.35
2022-08-24T12:14:49.005Z,11.30
2022-08-24T12:17:19.210Z,9.50
2022-08-24T12:19:56.368Z,6.85
2022-08-24T12:22:25.638Z,10.93
2022-08-24T12:24:56.323Z,19.10
2022-08-24T12:27:30.337Z,9.18
2022-08-24T12:30:14.121Z,13.88
2022-08-24T12:33:01.363Z,9.95
2022-08-24T12:35:34.699Z,10.48
2022-08-24T12:38:12.190Z,10.30
2022-08-24T12:40:53.991Z,9.85
2022-08-24T12:43:32.016Z,13.52
2022-08-24T12:46:01.502Z,9.07
2022-08-24T12:48:34.449Z,9.82
2022-08-24T12:51:07.525Z,9.00
2022-08-24T12:54:06.282Z,10.45
2022-08-24T12:57:07.098Z,10.95
2022-08-24T12:59:48.620Z,14.15
2022-08-24T13:02:15.870Z,9.10
2022-08-24T13:04:52.902Z,7.80
2022-08-24T13:07:20.186Z,11.70
2022-08-24T13:10:05.151Z,12.25
2022-08-24T13:12:45.064Z,8.80
2022-08-24T13:15:21.335Z,8.23
2022-08-24T13:17:58.837Z,8.75
2022-08-24T13:20:51.831Z,14.57
2022-08-24T13:23:24.889Z,9.98
2022-08-24T13:26:17.970Z,10.27
2022-08-24T13:28:49.919Z,13.00
2022-08-24T13:31:32.691Z,18.70
2022-08-24T13:34:24.962Z,18.75
2022-08-24T13:37:10.763Z,18.98
2022-08-24T13:39:56.074Z,19.02
2022-08-24T13:42:48.416Z,16.70
2022-08-24T13:45:19.484Z,12.10
2022-08-24T13:47:52.818Z,17.80
2022-08-24T13:51:17.500Z,19.85
2022-08-24T13:54:05.848Z,21.50
2022-08-24T13:56:44.419Z,16.13
2022-08-24T13:59:22.484Z,21.38
2022-08-24T14:02:16.759Z,29.77
2022-08-24T14:04:53.135Z,17.00
2022-08-24T14:07:33.935Z,24.45
2022-08-24T14:10:01.184Z,16.10
2022-08-24T14:12:32.124Z,21.02
2022-08-24T14:15:16.065Z,15.38
2022-08-24T14:17:57.959Z,19.63
2022-08-24T14:20:43.541Z,20.48
2022-08-24T14:23:25.662Z,19.17
2022-08-24T14:26:31.463Z,21.42
2022-08-24T14:29:22.764Z,17.70
2022-08-24T14:32:01.542Z,21.50
2022-08-24T14:34:59.847Z,19.48
2022-08-24T14:37:56.249Z,21.73
2022-08-24T14:40:30.255Z,14.32
2022-08-24T14:43:11.319Z,22.52
2022-08-24T14:46:16.142Z,24.45
2022-08-24T14:48:54.853Z,23.65
2022-08-24T14:51:59.943Z,17.77
2022-08-24T14:54:45.045Z,26.92
2022-08-24T14:57:18.911Z,17.90
2022-08-24T15:00:16.081Z,23.90
2022-08-24T15:02:52.221Z,23.85
2022-08-24T15:05:25.514Z,26.65
2022-08-24T15:08:07.304Z,23.98
2022-08-24T15:10:46.863Z,20.63
2022-08-24T15:13:26.833Z,27.73
2022-08-24T15:16:01.813Z,19.42
2022-08-24T15:18:44.555Z,17.25
2022-08-24T15:21:26.763Z,21.00
2022-08-24T15:23:54.238Z,28.98
2022-08-24T15:26:52.358Z,19.33
2022-08-24T15:29:24.700Z,15.95
2022-08-24T15:32:11.241Z,22.77
2022-08-24T15:34:45.778Z,15.93
2022-08-24T15:37:16.404Z,27.55
2022-08-24T15:39:44.465Z,29.65
2022-08-24T15:42:15.201Z,23.40
2022-08-24T15:44:47.538Z,19.33
2022-08-24T15:47:20.620Z,22.23
2022-08-24T15:49:52.404Z,25.98
2022-08-24T15:52:42.507Z,17.30
2022-08-24T15:55:26.604Z,24.83
2022-08-24T15:57:54.993Z,15.98
2022-08-24T16:00:54.019Z,19.00
2022-08-24T16:03:23.927Z,19.10
2022-08-24T16:05:54.209Z,23.70
2022-08-24T16:08:22.691Z,22.20
2022-08-24T16:10:49.912Z,29.02
2022-08-24T16:13:23.590Z,25.00
2022-08-24T16:16:14.537Z,26.08
2022-08-24T16:18:56.108Z,21.50
2022-08-24T16:21:40.565Z,20.13
2022-08-24T16:24:25.311Z,22.42
2022-08-24T16:27:07.251Z,20.02
2022-08-24T16:29:37.488Z,21.10
2022-08-24T16:32:33.369Z,21.55
2022-08-24T16:35:12.732Z,19.90
2022-08-24T16:37:39.964Z,17.80
2022-08-24T16:40:08.597Z,21.75
2022-08-24T16:42:37.149Z,17.25
2022-08-24T16:45:11.041Z,20.95
2022-08-24T16:47:38.542Z,20.75
2022-08-24T16:50:07.374Z,50.65
2022-08-24T16:52:36.587Z,28.27
2022-08-24T16:55:04.405Z,23.95
2022-08-24T16:57:37.715Z,19.63
2022-08-24T17:00:15.535Z,21.67
2022-08-24T17:02:43.319Z,18.08
2022-08-24T17:05:11.994Z,21.20
2022-08-24T17:07:39.647Z,22.05
2022-08-24T17:10:09.640Z,20.40
2022-08-24T17:12:37.679Z,22.42
2022-08-24T17:15:07.031Z,20.35
2022-08-24T17:17:34.819Z,17.92
2022-08-24T17:20:02.364Z,22.20
2022-08-24T17:22:29.626Z,21.70
2022-08-24T17:24:56.975Z,21.52
2022-08-24T17:27:29.634Z,17.48
2022-08-24T17:29:57.509Z,19.63
2022-08-24T17:32:25.619Z,14.60
2022-08-24T17:34:53.175Z,12.98
2022-08-24T17:37:20.746Z,19.50
2022-08-24T17:39:57.518Z,14.68
2022-08-24T17:42:49.635Z,16.15
2022-08-24T17:45:13.109Z,15.38
2022-08-24T17:47:43.112Z,12.85
2022-08-24T17:50:13.522Z,19.40
2022-08-24T17:52:41.716Z,13.50
2022-08-24T17:55:11.159Z,17.58
2022-08-24T17:57:39.172Z,21.25
2022-08-24T18:00:10.529Z,13.00
2022-08-24T18:02:41.495Z,18.13
2022-08-24T18:05:11.462Z,20.13
2022-08-24T18:07:53.051Z,13.95
2022-08-24T18:10:24.884Z,19.25
2022-08-24T18:12:52.313Z,15.10
2022-08-24T18:15:19.681Z,21.48
2022-08-24T18:17:50.331Z,14.35
2022-08-24T18:20:22.234Z,14.75
2022-08-24T18:22:52.801Z,22.92
2022-08-24T18:25:23.292Z,18.05
2022-08-24T18:27:54.368Z,13.75
2022-08-24T18:30:30.635Z,19.85
2022-08-24T18:33:01.794Z,21.13
2022-08-24T18:35:30.825Z,18.92
2022-08-24T18:37:58.116Z,21.42
2022-08-24T18:40:26.813Z,19.75
2022-08-24T18:43:00.598Z,16.95
2022-08-24T18:45:32.018Z,20.38
2022-08-24T18:48:01.963Z,22.25
2022-08-24T18:50:29.420Z,28.05
2022-08-24T18:52:58.871Z,20.85
2022-08-24T18:55:27.801Z,11.68
2022-08-24T18:57:55.618Z,14.15
2022-08-24T19:00:23.184Z,20.35
2022-08-24T19:02:52.035Z,18.17
2022-08-24T19:05:24.622Z,20.15
2022-08-24T19:07:54.412Z,23.48
2022-08-24T19:10:28.103Z,17.58
2022-08-24T19:13:00.108Z,20.45
2022-08-24T19:15:32.603Z,16.15
2022-08-24T19:18:11.240Z,17.85
2022-08-24T19:20:48.061Z,22.02
2022-08-24T19:23:34.227Z,16.92
2022-08-24T19:26:02.885Z,18.65
2022-08-24T19:28:31.361Z,17.85
2022-08-24T19:31:01.717Z,15.27
2022-08-24T19:33:35.469Z,24.58
2022-08-24T19:36:02.909Z,21.80
2022-08-24T19:38:30.539Z,16.50
2022-08-24T19:40:58.631Z,15.70
2022-08-24T19:43:28.303Z,19.60
2022-08-24T19:46:05.590Z,13.43
2022-08-24T19:48:40.042Z,25.17
2022-08-24T19:51:11.698Z,24.13
2022-08-24T19:53:41.568Z,17.25
2022-08-24T19:56:09.406Z,21.63
2022-08-24T19:58:39.411Z,29.52
2022-08-24T20:01:13.353Z,15.70
2022-08-24T20:03:41.101Z,28.17
2022-08-24T20:06:08.658Z,20.27
2022-08-24T20:08:35.860Z,18.38
2022-08-24T20:11:03.498Z,20.17
2022-08-24T20:13:30.774Z,20.58
2022-08-24T20:15:58.382Z,22.92
2022-08-24T20:18:30.905Z,19.23
2022-08-24T20:20:58.765Z,19.40
2022-08-24T20:23:26.687Z,22.30
2022-08-24T20:25:55.245Z,20.60
2022-08-24T20:28:30.537Z,22.52
2022-08-24T20:31:00.484Z,18.15
2022-08-24T20:33:28.030Z,16.27
2022-08-24T20:35:56.884Z,18.02
2022-08-24T20:38:25.120Z,28.90
2022-08-24T20:40:53.943Z,16.15
2022-08-24T20:43:21.831Z,16.67
2022-08-24T20:45:53.225Z,20.20
2022-08-24T20:48:28.982Z,22.45
2022-08-24T20:51:00.216Z,22.48
2022-08-24T20:53:28.057Z,23.30
2022-08-24T20:55:57.521Z,23.42
2022-08-24T20:58:25.013Z,18.70
2022-08-24T21:00:52.338Z,22.35
2022-08-24T21:03:20.022Z,19.65
2022-08-24T21:05:48.697Z,28.77
2022-08-24T21:08:16.089Z,19.98
2022-08-24T21:10:44.889Z,20.80
2022-08-24T21:13:12.348Z,22.95
2022-08-24T21:15:41.467Z,20.48
2022-08-24T21:18:10.812Z,19.77
2022-08-24T21:20:44.612Z,26.60
2022-08-24T21:23:27.973Z,23.38
2022-08-24T21:25:55.350Z,21.30
2022-08-24T21:28:23.108Z,18.65
2022-08-24T21:30:53.499Z,24.50
2022-08-24T21:33:39.752Z,22.50
2022-08-24T21:36:08.658Z,17.50
2022-08-24T21:38:39.203Z,16.73
2022-08-24T21:41:11.907Z,35.05
2022-08-24T21:43:39.196Z,20.00
2022-08-24T21:46:06.542Z,17.70
2022-08-24T21:48:33.949Z,18.60
2022-08-24T21:51:01.267Z,16.45
2022-08-24T21:53:28.826Z,24.70
2022-08-24T21:55:56.484Z,22.20
2022-08-24T21:58:24.461Z,16.50
2022-08-24T22:00:52.949Z,17.55
2022-08-24T22:03:26.284Z,14.32
2022-08-24T22:05:59.725Z,19.73
2022-08-24T22:08:27.859Z,19.00
2022-08-24T22:10:59.373Z,17.30
2022-08-24T22:13:26.715Z,16.05
2022-08-24T22:15:53.987Z,20.35
2022-08-24T22:18:21.261Z,19.52
2022-08-24T22:20:48.721Z,19.80
2022-08-24T22:23:15.980Z,18.33
2022-08-24T22:25:44.479Z,19.40
2022-08-24T22:28:11.761Z,15.02
2022-08-24T22:30:39.067Z,23.00
2022-08-24T22:33:06.421Z,15.30
2022-08-24T22:35:45.302Z,19.33
2022-08-24T22:38:13.633Z,17.08
2022-08-24T22:40:44.370Z,14.77
2022-08-24T22:43:12.884Z,12.20
2022-08-24T22:45:40.177Z,15.90
2022-08-24T22:48:07.485Z,16.95
2022-08-24T22:50:34.748Z,13.95
2022-08-24T22:53:02.123Z,12.70
2022-08-24T22:55:32.664Z,16.77
2022-08-24T22:57:59.879Z,12.65
2022-08-24T23:00:27.332Z,12.30
2022-08-24T23:02:54.595Z,18.52
2022-08-24T23:05:22.073Z,12.80
2022-08-24T23:07:49.333Z,13.80
2022-08-24T23:10:16.720Z,15.48
2022-08-24T23:12:43.974Z,12.73
2022-08-24T23:15:11.486Z,23.70
2022-08-24T23:17:38.720Z,21.17
2022-08-24T23:20:07.882Z,21.00
2022-08-24T23:22:39.375Z,23.92
2022-08-24T23:25:09.451Z,15.35
2022-08-24T23:27:38.068Z,15.82
2022-08-24T23:30:09.373Z,22.88
2022-08-24T23:32:36.850Z,15.52
2022-08-24T23:35:04.663Z,20.95
2022-08-24T23:37:32.008Z,20.38
2022-08-24T23:39:59.633Z,16.40
2022-08-24T23:42:26.927Z,21.17
2022-08-24T23:44:54.434Z,20.55
2022-08-24T23:47:22.374Z,18.55
2022-08-24T23:49:50.875Z,16.02
2022-08-24T23:52:28.320Z,16.95
2022-08-24T23:55:07.099Z,17.35
2022-08-24T23:57:44.387Z,13.20
